sensor_id;sensor_type;location;lat;lon;timestamp;pressure;altitude;pressure_sealevel;temperature;humidity
25130;BME280;13308;50.860;13.664;2023-04-20T04:23:38;96951.63;;;0.92;100.00
25130;BME280;13308;50.860;13.664;2023-04-20T04:26:22;96943.28;;;1.01;100.00
25130;BME280;13308;50.860;13.664;2023-04-20T04:28:50;96948.00;;;1.04;100.00
25130;BME280;13308;50.860;13.664;2023-04-20T04:31:17;96951.59;;;1.08;100.00
25130;BME280;13308;50.860;13.664;2023-04-20T04:33:44;96952.53;;;1.15;100.00
25130;BME280;13308;50.860;13.664;2023-04-20T04:36:14;96954.47;;;1.15;100.00
25130;BME280;13308;50.860;13.664;2023-04-20T04:38:40;96949.47;;;1.17;100.00
25130;BME280;13308;50.860;13.664;2023-04-20T04:41:09;96950.69;;;1.19;100.00
25130;BME280;13308;50.860;13.664;2023-04-20T04:43:36;96953.75;;;1.18;100.00
25130;BME280;13308;50.860;13.664;2023-04-20T04:46:10;96951.03;;;1.18;100.00
25130;BME280;13308;50.860;13.664;2023-04-20T04:48:37;96945.97;;;1.16;100.00
25130;BME280;13308;50.860;13.664;2023-04-20T04:51:04;96952.19;;;1.17;100.00
25130;BME280;13308;50.860;13.664;2023-04-20T04:53:30;96951.41;;;1.16;100.00
25130;BME280;13308;50.860;13.664;2023-04-20T04:55:55;96959.63;;;1.20;100.00
25130;BME280;13308;50.860;13.664;2023-04-20T04:58:21;96961.78;;;1.30;100.00
25130;BME280;13308;50.860;13.664;2023-04-20T05:00:46;96970.81;;;1.34;100.00
25130;BME280;13308;50.860;13.664;2023-04-20T05:03:12;96970.94;;;1.41;100.00
25130;BME280;13308;50.860;13.664;2023-04-20T05:05:37;96965.09;;;1.39;100.00
25130;BME280;13308;50.860;13.664;2023-04-20T05:08:03;96966.81;;;1.47;100.00
25130;BME280;13308;50.860;13.664;2023-04-20T05:10:28;96967.38;;;1.37;100.00
25130;BME280;13308;50.860;13.664;2023-04-20T05:12:54;96974.66;;;1.33;100.00
25130;BME280;13308;50.860;13.664;2023-04-20T05:15:19;96986.56;;;1.44;100.00
25130;BME280;13308;50.860;13.664;2023-04-20T05:17:45;96982.75;;;1.48;100.00
25130;BME280;13308;50.860;13.664;2023-04-20T05:20:10;96985.75;;;1.43;100.00
25130;BME280;13308;50.860;13.664;2023-04-20T05:22:36;96988.41;;;1.40;100.00
25130;BME280;13308;50.860;13.664;2023-04-20T05:25:03;96982.28;;;1.43;100.00
25130;BME280;13308;50.860;13.664;2023-04-20T05:27:28;96982.88;;;1.36;100.00
25130;BME280;13308;50.860;13.664;2023-04-20T05:29:54;96986.41;;;1.37;100.00
25130;BME280;13308;50.860;13.664;2023-04-20T05:32:20;96987.38;;;1.29;100.00
25130;BME280;13308;50.860;13.664;2023-04-20T05:34:45;96986.50;;;1.59;100.00
25130;BME280;13308;50.860;13.664;2023-04-20T05:37:10;96992.56;;;1.53;100.00
25130;BME280;13308;50.860;13.664;2023-04-20T05:39:36;96995.31;;;1.37;100.00
25130;BME280;13308;50.860;13.664;2023-04-20T05:42:01;97000.78;;;1.56;100.00
25130;BME280;13308;50.860;13.664;2023-04-20T05:44:26;96995.22;;;1.68;100.00
25130;BME280;13308;50.860;13.664;2023-04-20T05:46:51;97000.72;;;1.72;100.00
25130;BME280;13308;50.860;13.664;2023-04-20T05:49:17;97001.53;;;1.72;100.00
25130;BME280;13308;50.860;13.664;2023-04-20T05:51:42;97005.47;;;1.75;100.00
25130;BME280;13308;50.860;13.664;2023-04-20T05:54:08;97006.63;;;1.93;100.00
25130;BME280;13308;50.860;13.664;2023-04-20T05:56:34;97005.03;;;1.92;100.00
25130;BME280;13308;50.860;13.664;2023-04-20T05:58:59;97003.91;;;1.93;100.00
25130;BME280;13308;50.860;13.664;2023-04-20T06:01:25;97006.97;;;2.10;100.00
25130;BME280;13308;50.860;13.664;2023-04-20T06:03:50;96997.69;;;2.11;100.00
25130;BME280;13308;50.860;13.664;2023-04-20T06:06:16;97004.88;;;2.23;100.00
25130;BME280;13308;50.860;13.664;2023-04-20T06:08:41;96999.41;;;2.42;100.00
25130;BME280;13308;50.860;13.664;2023-04-20T06:11:06;96996.88;;;2.52;100.00
25130;BME280;13308;50.860;13.664;2023-04-20T06:13:32;97000.97;;;2.43;100.00
25130;BME280;13308;50.860;13.664;2023-04-20T06:15:57;96998.81;;;2.52;100.00
25130;BME280;13308;50.860;13.664;2023-04-20T06:18:22;96992.16;;;2.49;100.00
25130;BME280;13308;50.860;13.664;2023-04-20T06:20:48;96997.84;;;2.41;100.00
25130;BME280;13308;50.860;13.664;2023-04-20T06:23:13;97008.69;;;2.60;100.00
25130;BME280;13308;50.860;13.664;2023-04-20T06:25:39;97001.91;;;2.73;100.00
25130;BME280;13308;50.860;13.664;2023-04-20T06:28:05;97003.34;;;2.67;100.00
25130;BME280;13308;50.860;13.664;2023-04-20T06:30:31;96999.63;;;2.75;100.00
25130;BME280;13308;50.860;13.664;2023-04-20T06:32:58;97007.50;;;2.80;100.00
25130;BME280;13308;50.860;13.664;2023-04-20T06:35:23;97006.84;;;2.90;100.00
25130;BME280;13308;50.860;13.664;2023-04-20T06:37:49;97006.16;;;2.93;100.00
25130;BME280;13308;50.860;13.664;2023-04-20T06:40:14;97001.06;;;2.69;100.00
25130;BME280;13308;50.860;13.664;2023-04-20T06:42:39;96996.34;;;2.66;100.00
25130;BME280;13308;50.860;13.664;2023-04-20T06:45:06;96994.75;;;2.65;100.00
25130;BME280;13308;50.860;13.664;2023-04-20T06:47:31;96993.31;;;2.71;100.00
25130;BME280;13308;50.860;13.664;2023-04-20T06:49:58;97003.31;;;2.86;100.00
25130;BME280;13308;50.860;13.664;2023-04-20T06:52:24;96999.53;;;2.94;100.00
25130;BME280;13308;50.860;13.664;2023-04-20T06:54:50;96997.66;;;2.98;100.00
25130;BME280;13308;50.860;13.664;2023-04-20T06:57:15;97001.03;;;3.14;100.00
25130;BME280;13308;50.860;13.664;2023-04-20T06:59:41;97000.31;;;3.17;100.00
25130;BME280;13308;50.860;13.664;2023-04-20T07:02:06;97000.50;;;3.31;100.00
25130;BME280;13308;50.860;13.664;2023-04-20T07:04:31;97000.50;;;3.31;100.00
25130;BME280;13308;50.860;13.664;2023-04-20T07:06:56;97006.72;;;3.28;100.00
25130;BME280;13308;50.860;13.664;2023-04-20T07:09:22;97002.06;;;3.32;100.00
25130;BME280;13308;50.860;13.664;2023-04-20T07:11:47;97001.50;;;3.45;100.00
25130;BME280;13308;50.860;13.664;2023-04-20T07:14:13;97002.31;;;3.46;100.00
25130;BME280;13308;50.860;13.664;2023-04-20T07:16:38;97007.19;;;3.63;100.00
25130;BME280;13308;50.860;13.664;2023-04-20T07:19:03;97012.81;;;3.73;100.00
25130;BME280;13308;50.860;13.664;2023-04-20T07:21:29;97008.94;;;3.74;100.00
25130;BME280;13308;50.860;13.664;2023-04-20T07:23:56;97011.28;;;3.76;100.00
25130;BME280;13308;50.860;13.664;2023-04-20T07:26:23;97008.66;;;3.83;100.00
25130;BME280;13308;50.860;13.664;2023-04-20T07:28:48;97005.88;;;3.79;100.00
25130;BME280;13308;50.860;13.664;2023-04-20T07:31:14;97009.19;;;3.95;100.00
25130;BME280;13308;50.860;13.664;2023-04-20T07:33:39;97005.34;;;3.96;100.00
25130;BME280;13308;50.860;13.664;2023-04-20T07:36:04;97025.00;;;4.12;100.00
25130;BME280;13308;50.860;13.664;2023-04-20T07:38:30;97022.00;;;4.21;100.00
25130;BME280;13308;50.860;13.664;2023-04-20T07:40:56;97032.69;;;4.36;100.00
25130;BME280;13308;50.860;13.664;2023-04-20T07:43:21;97030.91;;;4.51;100.00
25130;BME280;13308;50.860;13.664;2023-04-20T07:45:46;97032.53;;;4.55;100.00
25130;BME280;13308;50.860;13.664;2023-04-20T07:48:12;97020.31;;;4.46;100.00
25130;BME280;13308;50.860;13.664;2023-04-20T07:50:38;97026.69;;;4.57;100.00
25130;BME280;13308;50.860;13.664;2023-04-20T07:53:03;97019.47;;;4.75;100.00
25130;BME280;13308;50.860;13.664;2023-04-20T07:55:29;97025.75;;;4.79;100.00
25130;BME280;13308;50.860;13.664;2023-04-20T07:57:55;97024.19;;;4.78;100.00
25130;BME280;13308;50.860;13.664;2023-04-20T08:00:21;97024.31;;;4.92;100.00
25130;BME280;13308;50.860;13.664;2023-04-20T08:02:47;97025.88;;;4.93;100.00
25130;BME280;13308;50.860;13.664;2023-04-20T08:05:12;97029.19;;;5.12;100.00
25130;BME280;13308;50.860;13.664;2023-04-20T08:07:37;97033.09;;;5.15;100.00
25130;BME280;13308;50.860;13.664;2023-04-20T08:10:04;97027.72;;;5.25;100.00
25130;BME280;13308;50.860;13.664;2023-04-20T08:12:30;97024.63;;;5.30;100.00
25130;BME280;13308;50.860;13.664;2023-04-20T08:14:55;97024.72;;;5.41;100.00
25130;BME280;13308;50.860;13.664;2023-04-20T08:17:25;97027.16;;;5.53;100.00
25130;BME280;13308;50.860;13.664;2023-04-20T08:19:50;97016.34;;;5.70;100.00
25130;BME280;13308;50.860;13.664;2023-04-20T08:22:16;97021.47;;;5.79;100.00
25130;BME280;13308;50.860;13.664;2023-04-20T08:24:41;97009.41;;;5.87;100.00
25130;BME280;13308;50.860;13.664;2023-04-20T08:27:07;97013.38;;;6.00;100.00
25130;BME280;13308;50.860;13.664;2023-04-20T08:29:33;97005.59;;;6.05;100.00
25130;BME280;13308;50.860;13.664;2023-04-20T08:31:58;97008.00;;;6.14;100.00
25130;BME280;13308;50.860;13.664;2023-04-20T08:34:23;97004.91;;;6.26;100.00
25130;BME280;13308;50.860;13.664;2023-04-20T08:36:49;97008.06;;;6.31;100.00
25130;BME280;13308;50.860;13.664;2023-04-20T08:39:19;97003.41;;;6.46;100.00
25130;BME280;13308;50.860;13.664;2023-04-20T08:41:44;97005.41;;;6.63;100.00
25130;BME280;13308;50.860;13.664;2023-04-20T08:44:10;97008.16;;;6.70;100.00
25130;BME280;13308;50.860;13.664;2023-04-20T08:46:36;97000.38;;;6.86;100.00
25130;BME280;13308;50.860;13.664;2023-04-20T08:49:02;97000.38;;;6.86;100.00
25130;BME280;13308;50.860;13.664;2023-04-20T08:51:28;97005.88;;;7.00;100.00
25130;BME280;13308;50.860;13.664;2023-04-20T08:53:54;97006.66;;;7.00;100.00
25130;BME280;13308;50.860;13.664;2023-04-20T08:56:37;97009.03;;;7.09;100.00
25130;BME280;13308;50.860;13.664;2023-04-20T08:59:03;97020.00;;;7.09;100.00
25130;BME280;13308;50.860;13.664;2023-04-20T09:01:35;97020.75;;;7.20;100.00
25130;BME280;13308;50.860;13.664;2023-04-20T09:04:02;97022.34;;;7.17;100.00
25130;BME280;13308;50.860;13.664;2023-04-20T09:06:27;97022.34;;;7.21;100.00
25130;BME280;13308;50.860;13.664;2023-04-20T09:08:53;97018.41;;;7.25;100.00
25130;BME280;13308;50.860;13.664;2023-04-20T09:11:28;97009.81;;;7.27;100.00
25130;BME280;13308;50.860;13.664;2023-04-20T09:14:01;97016.84;;;7.42;100.00
25130;BME280;13308;50.860;13.664;2023-04-20T09:16:29;97010.56;;;7.62;100.00
25130;BME280;13308;50.860;13.664;2023-04-20T09:18:55;97009.78;;;7.72;100.00
25130;BME280;13308;50.860;13.664;2023-04-20T09:21:24;97012.88;;;7.78;100.00
25130;BME280;13308;50.860;13.664;2023-04-20T09:24:01;97024.59;;;8.02;100.00
25130;BME280;13308;50.860;13.664;2023-04-20T09:26:30;97017.50;;;8.16;100.00
25130;BME280;13308;50.860;13.664;2023-04-20T09:28:55;97011.97;;;8.33;100.00
25130;BME280;13308;50.860;13.664;2023-04-20T09:31:21;97007.66;;;8.32;100.00
25130;BME280;13308;50.860;13.664;2023-04-20T09:34:00;97007.28;;;8.23;100.00
25130;BME280;13308;50.860;13.664;2023-04-20T09:36:43;97013.53;;;8.31;100.00
25130;BME280;13308;50.860;13.664;2023-04-20T09:39:10;97010.31;;;8.49;100.00
25130;BME280;13308;50.860;13.664;2023-04-20T09:41:38;97002.94;;;8.36;100.00
25130;BME280;13308;50.860;13.664;2023-04-20T09:44:04;97007.25;;;8.34;100.00
25130;BME280;13308;50.860;13.664;2023-04-20T09:46:32;97006.53;;;8.16;100.00
25130;BME280;13308;50.860;13.664;2023-04-20T09:48:59;97015.59;;;7.99;100.00
25130;BME280;13308;50.860;13.664;2023-04-20T09:51:28;97016.03;;;7.73;100.00
25130;BME280;13308;50.860;13.664;2023-04-20T09:54:00;97028.22;;;7.54;100.00
25130;BME280;13308;50.860;13.664;2023-04-20T09:56:26;97029.00;;;7.27;100.00
25130;BME280;13308;50.860;13.664;2023-04-20T09:58:53;97041.94;;;7.23;100.00
25130;BME280;13308;50.860;13.664;2023-04-20T10:01:19;97023.13;;;7.00;100.00
25130;BME280;13308;50.860;13.664;2023-04-20T10:03:45;97036.00;;;6.89;100.00
25130;BME280;13308;50.860;13.664;2023-04-20T10:06:20;97023.06;;;6.83;100.00
25130;BME280;13308;50.860;13.664;2023-04-20T10:08:46;97021.09;;;6.73;100.00
25130;BME280;13308;50.860;13.664;2023-04-20T10:11:24;97020.31;;;6.69;100.00
25130;BME280;13308;50.860;13.664;2023-04-20T10:13:49;97021.06;;;6.66;100.00
25130;BME280;13308;50.860;13.664;2023-04-20T10:16:18;97017.47;;;6.44;100.00
25130;BME280;13308;50.860;13.664;2023-04-20T10:18:55;97012.81;;;6.52;100.00
25130;BME280;13308;50.860;13.664;2023-04-20T10:21:20;97008.88;;;6.39;100.00
25130;BME280;13308;50.860;13.664;2023-04-20T10:23:50;97008.09;;;6.42;100.00
25130;BME280;13308;50.860;13.664;2023-04-20T10:26:15;97008.88;;;6.46;100.00
25130;BME280;13308;50.860;13.664;2023-04-20T10:28:41;97005.78;;;6.51;100.00
25130;BME280;13308;50.860;13.664;2023-04-20T10:31:09;97005.41;;;6.56;100.00
25130;BME280;13308;50.860;13.664;2023-04-20T10:33:49;97001.88;;;6.52;100.00
25130;BME280;13308;50.860;13.664;2023-04-20T10:36:28;96998.75;;;6.57;100.00
25130;BME280;13308;50.860;13.664;2023-04-20T10:38:53;96990.53;;;6.67;100.00
25130;BME280;13308;50.860;13.664;2023-04-20T10:41:19;96987.84;;;6.88;100.00
25130;BME280;13308;50.860;13.664;2023-04-20T10:43:45;96982.38;;;6.99;100.00
25130;BME280;13308;50.860;13.664;2023-04-20T10:48:56;96985.50;;;7.32;100.00
25130;BME280;13308;50.860;13.664;2023-04-20T10:51:22;96974.50;;;7.43;100.00
25130;BME280;13308;50.860;13.664;2023-04-20T10:54:05;96971.38;;;7.48;100.00
25130;BME280;13308;50.860;13.664;2023-04-20T10:59:08;96979.97;;;7.71;100.00
25130;BME280;13308;50.860;13.664;2023-04-20T11:01:34;96975.25;;;7.75;100.00
25130;BME280;13308;50.860;13.664;2023-04-20T11:03:59;96968.19;;;7.81;100.00
25130;BME280;13308;50.860;13.664;2023-04-20T11:06:25;96970.09;;;7.87;100.00
25130;BME280;13308;50.860;13.664;2023-04-20T11:08:51;96971.28;;;7.83;100.00
25130;BME280;13308;50.860;13.664;2023-04-20T11:11:18;96963.44;;;7.92;100.00
25130;BME280;13308;50.860;13.664;2023-04-20T11:13:44;96968.91;;;7.99;100.00
25130;BME280;13308;50.860;13.664;2023-04-20T11:16:13;96968.50;;;8.04;100.00
25130;BME280;13308;50.860;13.664;2023-04-20T11:18:51;96968.88;;;8.06;100.00
25130;BME280;13308;50.860;13.664;2023-04-20T11:21:16;96968.44;;;8.18;100.00
25130;BME280;13308;50.860;13.664;2023-04-20T11:23:41;96963.44;;;7.85;100.00
25130;BME280;13308;50.860;13.664;2023-04-20T11:26:08;96969.78;;;7.71;100.00
25130;BME280;13308;50.860;13.664;2023-04-20T11:28:33;96964.25;;;7.82;100.00
25130;BME280;13308;50.860;13.664;2023-04-20T11:30:59;96965.75;;;8.04;100.00
25130;BME280;13308;50.860;13.664;2023-04-20T11:33:29;96963.84;;;7.87;100.00
25130;BME280;13308;50.860;13.664;2023-04-20T11:35:57;96963.81;;;7.94;100.00
25130;BME280;13308;50.860;13.664;2023-04-20T11:38:32;96964.19;;;7.96;100.00
25130;BME280;13308;50.860;13.664;2023-04-20T11:40:58;96965.00;;;7.93;100.00
25130;BME280;13308;50.860;13.664;2023-04-20T11:43:31;96965.78;;;7.90;100.00
25130;BME280;13308;50.860;13.664;2023-04-20T11:45:57;96971.31;;;7.76;100.00
25130;BME280;13308;50.860;13.664;2023-04-20T11:48:23;96968.19;;;7.81;100.00
25130;BME280;13308;50.860;13.664;2023-04-20T11:50:48;96966.56;;;7.94;100.00
25130;BME280;13308;50.860;13.664;2023-04-20T11:53:13;96965.78;;;7.90;100.00
25130;BME280;13308;50.860;13.664;2023-04-20T11:55:39;96955.16;;;8.02;100.00
25130;BME280;13308;50.860;13.664;2023-04-20T11:58:06;96963.38;;;8.09;100.00
25130;BME280;13308;50.860;13.664;2023-04-20T12:00:32;96964.97;;;8.00;100.00
25130;BME280;13308;50.860;13.664;2023-04-20T12:02:57;96971.28;;;7.90;100.00
25130;BME280;13308;50.860;13.664;2023-04-20T12:05:23;96957.94;;;7.85;100.00
25130;BME280;13308;50.860;13.664;2023-04-20T12:07:49;96961.84;;;7.91;100.00
25130;BME280;13308;50.860;13.664;2023-04-20T12:10:14;96950.88;;;7.91;100.00
25130;BME280;13308;50.860;13.664;2023-04-20T12:12:40;96957.06;;;8.08;100.00
25130;BME280;13308;50.860;13.664;2023-04-20T12:15:06;96949.28;;;8.04;100.00
25130;BME280;13308;50.860;13.664;2023-04-20T12:17:32;96948.47;;;8.07;100.00
25130;BME280;13308;50.860;13.664;2023-04-20T12:19:57;96939.06;;;8.01;100.00
25130;BME280;13308;50.860;13.664;2023-04-20T12:22:22;96948.84;;;8.05;100.00
25130;BME280;13308;50.860;13.664;2023-04-20T12:24:48;96949.69;;;7.99;100.00
25130;BME280;13308;50.860;13.664;2023-04-20T12:27:13;96940.59;;;8.08;100.00
25130;BME280;13308;50.860;13.664;2023-04-20T12:29:38;96943.72;;;8.18;100.00
25130;BME280;13308;50.860;13.664;2023-04-20T12:32:04;96943.75;;;8.11;100.00
25130;BME280;13308;50.860;13.664;2023-04-20T12:34:29;96944.13;;;8.20;100.00
25130;BME280;13308;50.860;13.664;2023-04-20T12:36:54;96947.25;;;8.22;100.00
25130;BME280;13308;50.860;13.664;2023-04-20T12:39:19;96940.59;;;8.23;100.00
25130;BME280;13308;50.860;13.664;2023-04-20T12:41:45;96942.94;;;8.21;100.00
25130;BME280;13308;50.860;13.664;2023-04-20T12:44:11;96937.44;;;8.21;100.00
25130;BME280;13308;50.860;13.664;2023-04-20T12:46:37;96942.09;;;8.31;100.00
25130;BME280;13308;50.860;13.664;2023-04-20T12:49:02;96939.72;;;8.32;100.00
25130;BME280;13308;50.860;13.664;2023-04-20T12:51:27;96938.97;;;8.32;100.00
25130;BME280;13308;50.860;13.664;2023-04-20T12:53:53;96945.66;;;8.31;100.00
25130;BME280;13308;50.860;13.664;2023-04-20T12:56:19;96939.72;;;8.32;100.00
25130;BME280;13308;50.860;13.664;2023-04-20T12:58:44;96936.53;;;8.48;100.00
25130;BME280;13308;50.860;13.664;2023-04-20T13:01:10;96934.06;;;8.60;100.00
25130;BME280;13308;50.860;13.664;2023-04-20T13:03:35;96927.78;;;8.63;100.00
25130;BME280;13308;50.860;13.664;2023-04-20T13:06:00;96927.66;;;8.81;100.00
25130;BME280;13308;50.860;13.664;2023-04-20T13:08:26;96926.41;;;8.89;100.00
25130;BME280;13308;50.860;13.664;2023-04-20T13:10:51;96925.25;;;8.86;100.00
25130;BME280;13308;50.860;13.664;2023-04-20T13:13:16;96924.78;;;8.98;100.00
25130;BME280;13308;50.860;13.664;2023-04-20T13:15:42;96927.00;;;9.14;100.00
25130;BME280;13308;50.860;13.664;2023-04-20T13:18:07;96921.78;;;9.26;100.00
25130;BME280;13308;50.860;13.664;2023-04-20T13:20:33;96919.69;;;9.37;100.00
25130;BME280;13308;50.860;13.664;2023-04-20T13:22:59;96916.28;;;9.63;100.00
25130;BME280;13308;50.860;13.664;2023-04-20T13:25:26;96909.34;;;9.85;100.00
25130;BME280;13308;50.860;13.664;2023-04-20T13:27:52;96917.81;;;10.05;100.00
25130;BME280;13308;50.860;13.664;2023-04-20T13:30:18;96909.16;;;10.06;100.00
25130;BME280;13308;50.860;13.664;2023-04-20T13:32:43;96913.72;;;10.16;100.00
25130;BME280;13308;50.860;13.664;2023-04-20T13:35:09;96919.06;;;10.30;100.00
25130;BME280;13308;50.860;13.664;2023-04-20T13:37:37;96920.31;;;10.52;100.00
25130;BME280;13308;50.860;13.664;2023-04-20T13:40:03;96914.19;;;10.68;100.00
25130;BME280;13308;50.860;13.664;2023-04-20T13:42:29;96911.06;;;10.92;100.00
25130;BME280;13308;50.860;13.664;2023-04-20T13:44:54;96915.16;;;11.30;100.00
25130;BME280;13308;50.860;13.664;2023-04-20T13:47:20;96919.13;;;11.75;100.00
25130;BME280;13308;50.860;13.664;2023-04-20T13:49:45;96919.09;;;12.53;100.00
25130;BME280;13308;50.860;13.664;2023-04-20T13:52:10;96926.09;;;12.93;100.00
25130;BME280;13308;50.860;13.664;2023-04-20T13:54:36;96927.91;;;14.08;98.84
25130;BME280;13308;50.860;13.664;2023-04-20T13:57:01;96918.47;;;13.77;99.15
25130;BME280;13308;50.860;13.664;2023-04-20T13:59:28;96922.16;;;13.26;95.95
25130;BME280;13308;50.860;13.664;2023-04-20T14:01:53;96916.91;;;12.80;96.73
25130;BME280;13308;50.860;13.664;2023-04-20T14:04:18;96917.91;;;12.70;99.61
25130;BME280;13308;50.860;13.664;2023-04-20T14:06:44;96917.69;;;12.45;100.00
25130;BME280;13308;50.860;13.664;2023-04-20T14:09:09;96906.09;;;12.15;100.00
25130;BME280;13308;50.860;13.664;2023-04-20T14:11:34;96919.81;;;11.99;100.00
25130;BME280;13308;50.860;13.664;2023-04-20T14:14:00;96918.00;;;11.92;100.00
25130;BME280;13308;50.860;13.664;2023-04-20T14:16:25;96913.31;;;11.89;100.00
25130;BME280;13308;50.860;13.664;2023-04-20T14:18:51;96912.63;;;11.85;100.00
25130;BME280;13308;50.860;13.664;2023-04-20T14:21:16;96919.78;;;12.02;100.00
25130;BME280;13308;50.860;13.664;2023-04-20T14:23:41;96907.88;;;12.05;100.00
25130;BME280;13308;50.860;13.664;2023-04-20T14:26:07;96912.41;;;12.15;100.00
25130;BME280;13308;50.860;13.664;2023-04-20T14:28:32;96913.97;;;12.16;100.00
25130;BME280;13308;50.860;13.664;2023-04-20T14:30:57;96911.25;;;11.93;100.00
25130;BME280;13308;50.860;13.664;2023-04-20T14:33:25;96912.25;;;12.03;100.00
25130;BME280;13308;50.860;13.664;2023-04-20T14:35:50;96926.19;;;12.90;100.00
25130;BME280;13308;50.860;13.664;2023-04-20T14:38:15;96910.63;;;13.12;100.00
25130;BME280;13308;50.860;13.664;2023-04-20T14:40:41;96912.75;;;12.88;100.00
25130;BME280;13308;50.860;13.664;2023-04-20T14:43:06;96899.59;;;12.76;100.00
25130;BME280;13308;50.860;13.664;2023-04-20T14:45:32;96900.53;;;12.34;100.00
25130;BME280;13308;50.860;13.664;2023-04-20T14:47:57;96900.13;;;11.97;100.00
25130;BME280;13308;50.860;13.664;2023-04-20T14:50:26;96890.66;;;11.78;100.00
25130;BME280;13308;50.860;13.664;2023-04-20T14:52:52;96901.94;;;11.64;100.00
25130;BME280;13308;50.860;13.664;2023-04-20T14:55:17;96896.41;;;11.41;100.00
25130;BME280;13308;50.860;13.664;2023-04-20T14:57:47;96893.31;;;11.16;100.00
25130;BME280;13308;50.860;13.664;2023-04-20T15:00:13;96892.34;;;10.80;100.00
25130;BME280;13308;50.860;13.664;2023-04-20T15:02:38;96894.84;;;10.71;100.00
25130;BME280;13308;50.860;13.664;2023-04-20T15:05:04;96889.06;;;10.62;100.00
25130;BME280;13308;50.860;13.664;2023-04-20T15:07:29;96881.72;;;10.52;100.00
25130;BME280;13308;50.860;13.664;2023-04-20T15:09:55;96888.19;;;10.42;100.00
25130;BME280;13308;50.860;13.664;2023-04-20T15:12:20;96887.16;;;10.59;100.00
25130;BME280;13308;50.860;13.664;2023-04-20T15:14:46;96879.47;;;10.70;100.00
25130;BME280;13308;50.860;13.664;2023-04-20T15:17:11;96877.34;;;10.81;100.00
25130;BME280;13308;50.860;13.664;2023-04-20T15:19:38;96869.53;;;10.76;100.00
25130;BME280;13308;50.860;13.664;2023-04-20T15:22:10;96870.31;;;10.77;100.00
25130;BME280;13308;50.860;13.664;2023-04-20T15:24:35;96862.25;;;10.89;100.00
25130;BME280;13308;50.860;13.664;2023-04-20T15:27:00;96868.13;;;11.14;100.00
25130;BME280;13308;50.860;13.664;2023-04-20T15:29:26;96861.41;;;11.15;100.00
25130;BME280;13308;50.860;13.664;2023-04-20T15:31:51;96859.50;;;11.32;100.00
25130;BME280;13308;50.860;13.664;2023-04-20T15:34:16;96855.06;;;11.38;100.00
25130;BME280;13308;50.860;13.664;2023-04-20T15:36:41;96858.00;;;11.50;100.00
25130;BME280;13308;50.860;13.664;2023-04-20T15:39:07;96861.34;;;11.81;100.00
25130;BME280;13308;50.860;13.664;2023-04-20T15:41:33;96859.72;;;12.03;100.00
25130;BME280;13308;50.860;13.664;2023-04-20T15:43:59;96858.59;;;12.00;100.00
25130;BME280;13308;50.860;13.664;2023-04-20T15:46:24;96856.28;;;12.34;100.00
25130;BME280;13308;50.860;13.664;2023-04-20T15:48:50;96861.31;;;12.55;100.00
25130;BME280;13308;50.860;13.664;2023-04-20T15:51:16;96862.69;;;12.99;100.00
25130;BME280;13308;50.860;13.664;2023-04-20T15:53:43;96861.19;;;13.26;100.00
25130;BME280;13308;50.860;13.664;2023-04-20T15:56:12;96867.63;;;13.23;100.00
25130;BME280;13308;50.860;13.664;2023-04-20T15:58:37;96864.25;;;13.16;100.00
25130;BME280;13308;50.860;13.664;2023-04-20T16:01:02;96869.22;;;13.53;100.00
25130;BME280;13308;50.860;13.664;2023-04-20T16:03:28;96869.56;;;13.83;100.00
25130;BME280;13308;50.860;13.664;2023-04-20T16:05:53;96870.28;;;14.00;99.82
25130;BME280;13308;50.860;13.664;2023-04-20T16:08:18;96863.31;;;13.67;100.00
25130;BME280;13308;50.860;13.664;2023-04-20T16:10:45;96866.53;;;13.49;99.61
25130;BME280;13308;50.860;13.664;2023-04-20T16:13:10;96863.25;;;13.38;100.00
25130;BME280;13308;50.860;13.664;2023-04-20T16:15:36;96863.44;;;13.31;100.00
25130;BME280;13308;50.860;13.664;2023-04-20T16:18:01;96856.53;;;13.23;100.00
25130;BME280;13308;50.860;13.664;2023-04-20T16:20:28;96852.94;;;13.10;100.00
25130;BME280;13308;50.860;13.664;2023-04-20T16:22:54;96847.19;;;12.85;100.00
25130;BME280;13308;50.860;13.664;2023-04-20T16:25:19;96848.75;;;12.70;100.00
25130;BME280;13308;50.860;13.664;2023-04-20T16:27:47;96853.56;;;12.66;100.00
25130;BME280;13308;50.860;13.664;2023-04-20T16:30:14;96853.03;;;12.55;100.00
25130;BME280;13308;50.860;13.664;2023-04-20T16:32:39;96855.56;;;12.30;100.00
25130;BME280;13308;50.860;13.664;2023-04-20T16:35:05;96851.25;;;12.29;100.00
25130;BME280;13308;50.860;13.664;2023-04-20T16:37:31;96849.06;;;12.21;100.00
25130;BME280;13308;50.860;13.664;2023-04-20T16:39:58;96852.44;;;11.93;100.00
25130;BME280;13308;50.860;13.664;2023-04-20T16:42:24;96856.63;;;11.81;100.00
25130;BME280;13308;50.860;13.664;2023-04-20T16:44:50;96855.22;;;11.73;100.00
25130;BME280;13308;50.860;13.664;2023-04-20T16:47:15;96845.88;;;11.67;100.00
25130;BME280;13308;50.860;13.664;2023-04-20T16:49:40;96842.56;;;11.53;100.00
25130;BME280;13308;50.860;13.664;2023-04-20T16:52:06;96846.50;;;11.32;100.00
25130;BME280;13308;50.860;13.664;2023-04-20T16:54:32;96847.25;;;11.33;100.00
25130;BME280;13308;50.860;13.664;2023-04-20T16:56:58;96846.63;;;11.25;100.00
25130;BME280;13308;50.860;13.664;2023-04-20T16:59:25;96848.81;;;11.14;100.00
25130;BME280;13308;50.860;13.664;2023-04-20T17:01:50;96838.72;;;11.04;100.00
25130;BME280;13308;50.860;13.664;2023-04-20T17:04:15;96855.75;;;10.99;100.00
25130;BME280;13308;50.860;13.664;2023-04-20T17:06:42;96846.50;;;10.86;100.00
25130;BME280;13308;50.860;13.664;2023-04-20T17:09:07;96856.88;;;10.79;100.00
25130;BME280;13308;50.860;13.664;2023-04-20T17:11:35;96847.56;;;10.69;100.00